createdAt,value
2023-03-26T00:01:08.237Z,13.89
2023-03-26T00:03:45.750Z,13.92
2023-03-26T00:06:19.796Z,13.95
2023-03-26T00:08:54.258Z,13.96
2023-03-26T00:11:30.812Z,13.92
2023-03-26T00:14:04.474Z,13.95
2023-03-26T00:16:37.620Z,13.95
2023-03-26T00:19:11.218Z,13.93
2023-03-26T00:21:44.457Z,13.83
2023-03-26T00:24:18.031Z,13.80
2023-03-26T00:26:53.981Z,13.72
2023-03-26T00:29:28.456Z,13.63
2023-03-26T00:32:02.263Z,13.57
2023-03-26T00:34:35.747Z,13.47
2023-03-26T00:37:09.337Z,13.35
2023-03-26T00:39:43.281Z,13.30
2023-03-26T00:42:16.305Z,13.23
2023-03-26T00:44:51.957Z,13.25
2023-03-26T00:47:25.536Z,13.20
2023-03-26T00:49:58.826Z,13.20
2023-03-26T00:52:32.267Z,13.22
2023-03-26T00:55:05.377Z,13.20
2023-03-26T00:57:38.945Z,13.11
2023-03-26T01:00:17.079Z,13.13
2023-03-26T01:02:50.313Z,13.07
2023-03-26T01:05:37.327Z,13.01
2023-03-26T01:08:34.886Z,12.94
2023-03-26T01:11:16.727Z,12.97
2023-03-26T01:14:03.404Z,13.06
2023-03-26T01:16:58.457Z,13.07
2023-03-26T01:20:02.115Z,13.19
2023-03-26T01:22:38.840Z,13.15
2023-03-26T01:25:12.666Z,13.14
2023-03-26T01:27:56.569Z,13.07
2023-03-26T01:30:52.774Z,12.97
2023-03-26T01:33:54.398Z,12.85
2023-03-26T01:36:43.735Z,12.75
2023-03-26T01:39:50.102Z,12.67
2023-03-26T01:42:30.812Z,12.60
2023-03-26T01:45:22.236Z,12.55
2023-03-26T01:47:57.172Z,12.42
2023-03-26T01:50:32.332Z,12.39
2023-03-26T01:53:05.535Z,12.34
2023-03-26T01:56:06.341Z,12.28
2023-03-26T01:59:02.626Z,12.15
2023-03-26T02:02:12.843Z,12.07
2023-03-26T02:05:06.699Z,11.94
2023-03-26T02:08:03.170Z,11.89
2023-03-26T02:10:42.503Z,12.00
2023-03-26T02:13:15.947Z,11.96
2023-03-26T02:16:06.685Z,11.87
2023-03-26T02:18:40.274Z,11.74
2023-03-26T02:21:26.899Z,11.76
2023-03-26T02:24:07.072Z,11.67
2023-03-26T02:26:41.021Z,11.56
2023-03-26T02:29:21.292Z,11.40
2023-03-26T02:31:54.699Z,11.35
2023-03-26T02:34:28.150Z,11.40
2023-03-26T02:37:01.857Z,11.34
2023-03-26T02:39:35.339Z,11.34
2023-03-26T02:42:16.551Z,11.32
2023-03-26T02:44:53.426Z,11.24
2023-03-26T02:47:26.452Z,11.16
2023-03-26T02:49:59.130Z,11.23
2023-03-26T02:52:49.607Z,11.12
2023-03-26T02:55:22.868Z,11.04
2023-03-26T02:57:58.119Z,11.00
2023-03-26T03:00:40.635Z,11.03
2023-03-26T03:03:38.462Z,10.95
2023-03-26T03:06:38.829Z,10.89
2023-03-26T03:09:12.703Z,10.90
2023-03-26T03:11:49.004Z,10.83
2023-03-26T03:14:22.394Z,10.80
2023-03-26T03:16:55.414Z,10.81
2023-03-26T03:19:28.841Z,10.78
2023-03-26T03:22:02.134Z,10.72
2023-03-26T03:24:36.357Z,10.72
2023-03-26T03:27:09.525Z,10.78
2023-03-26T03:29:54.174Z,10.74
2023-03-26T03:32:58.902Z,10.85
2023-03-26T03:35:34.071Z,10.84
2023-03-26T03:38:07.617Z,10.72
2023-03-26T03:40:48.861Z,10.69
2023-03-26T03:43:22.419Z,10.70
2023-03-26T03:46:07.042Z,10.60
2023-03-26T03:48:50.646Z,10.60
2023-03-26T03:51:28.489Z,10.52
2023-03-26T03:54:10.499Z,10.51
2023-03-26T03:56:52.777Z,10.53
2023-03-26T03:59:53.306Z,10.50
2023-03-26T04:02:35.487Z,10.48
2023-03-26T04:05:12.173Z,10.47
2023-03-26T04:07:50.799Z,10.46
2023-03-26T04:10:29.958Z,10.44
2023-03-26T04:13:09.653Z,10.42
2023-03-26T04:16:07.815Z,10.41
2023-03-26T04:18:41.312Z,10.40
2023-03-26T04:21:19.943Z,10.41
2023-03-26T04:23:54.779Z,10.37
2023-03-26T04:26:52.845Z,10.42
2023-03-26T04:29:39.070Z,10.45
2023-03-26T04:32:26.960Z,10.50
2023-03-26T04:35:04.633Z,10.51
2023-03-26T04:37:40.507Z,10.62
2023-03-26T04:40:22.663Z,10.70
2023-03-26T04:43:19.003Z,10.78
2023-03-26T04:46:24.664Z,10.80
2023-03-26T04:49:07.692Z,10.77
2023-03-26T04:51:42.468Z,10.78
2023-03-26T04:54:32.221Z,10.84
2023-03-26T04:57:20.993Z,10.81
2023-03-26T05:00:16.236Z,10.83
2023-03-26T05:02:51.075Z,10.76
2023-03-26T05:05:25.084Z,10.79
2023-03-26T05:07:59.077Z,10.78
2023-03-26T05:10:32.428Z,10.79
2023-03-26T05:13:19.866Z,10.77
2023-03-26T05:15:56.197Z,10.78
2023-03-26T05:18:41.237Z,10.79
2023-03-26T05:21:14.889Z,10.88
2023-03-26T05:23:48.173Z,10.90
2023-03-26T05:26:26.549Z,10.91
2023-03-26T05:28:59.772Z,10.90
2023-03-26T05:31:40.214Z,10.93
2023-03-26T05:34:13.775Z,10.95
2023-03-26T05:36:47.448Z,10.85
2023-03-26T05:39:44.314Z,10.94
2023-03-26T05:42:42.606Z,11.01
2023-03-26T05:45:43.458Z,11.09
2023-03-26T05:48:25.258Z,11.12
2023-03-26T05:51:00.467Z,11.16
2023-03-26T05:53:36.503Z,11.17
2023-03-26T05:56:15.832Z,11.23
2023-03-26T05:59:07.261Z,11.19
2023-03-26T06:02:02.551Z,11.23
2023-03-26T06:05:10.418Z,11.26
2023-03-26T06:07:59.871Z,11.32
2023-03-26T06:10:41.510Z,11.28
2023-03-26T06:13:14.095Z,11.31
2023-03-26T06:15:47.232Z,11.36
2023-03-26T06:18:28.539Z,11.32
2023-03-26T06:21:24.008Z,11.29
2023-03-26T06:24:17.017Z,11.25
2023-03-26T06:27:06.978Z,11.34
2023-03-26T06:30:11.536Z,11.36
2023-03-26T06:33:01.237Z,11.37
2023-03-26T06:35:40.867Z,11.30
2023-03-26T06:38:14.162Z,11.30
2023-03-26T06:40:47.384Z,11.28
2023-03-26T06:43:44.567Z,11.34
2023-03-26T06:46:42.259Z,11.40
2023-03-26T06:49:49.628Z,11.47
2023-03-26T06:52:44.865Z,11.68
2023-03-26T06:55:48.761Z,11.77
2023-03-26T06:58:43.300Z,11.81
2023-03-26T07:01:35.833Z,11.83
2023-03-26T07:04:29.105Z,11.86
2023-03-26T07:07:25.245Z,11.91
2023-03-26T07:10:38.449Z,11.76
2023-03-26T07:13:42.432Z,11.49
2023-03-26T07:16:35.986Z,11.09
2023-03-26T07:19:29.086Z,10.90
2023-03-26T07:22:03.481Z,10.86
2023-03-26T07:25:05.192Z,10.97
2023-03-26T07:28:31.199Z,11.10
2023-03-26T07:31:43.548Z,11.27
2023-03-26T07:35:07.780Z,11.43
2023-03-26T07:38:12.689Z,11.68
2023-03-26T07:41:38.123Z,11.92
2023-03-26T07:44:54.523Z,12.27
2023-03-26T07:47:57.685Z,12.56
2023-03-26T07:50:54.032Z,12.86
2023-03-26T07:53:40.412Z,13.18
2023-03-26T07:56:42.657Z,13.42
2023-03-26T07:59:59.901Z,13.75
2023-03-26T08:03:12.606Z,14.08
2023-03-26T08:06:28.793Z,14.41
2023-03-26T08:09:32.825Z,14.57
2023-03-26T08:12:47.519Z,14.76
2023-03-26T08:15:44.685Z,14.82
2023-03-26T08:18:49.060Z,14.88
2023-03-26T08:21:40.781Z,14.90
2023-03-26T08:24:38.163Z,15.05
2023-03-26T08:27:25.517Z,15.18
2023-03-26T08:30:22.789Z,15.19
2023-03-26T08:33:07.160Z,15.11
2023-03-26T08:35:42.957Z,15.20
2023-03-26T08:38:18.186Z,15.29
2023-03-26T08:40:59.456Z,15.35
2023-03-26T08:43:40.891Z,15.37
2023-03-26T08:46:47.214Z,15.31
2023-03-26T08:49:32.375Z,15.36
2023-03-26T08:52:39.288Z,15.40
2023-03-26T08:55:27.296Z,15.41
2023-03-26T08:58:09.532Z,15.39
2023-03-26T09:01:09.957Z,15.35
2023-03-26T09:04:10.078Z,15.60
2023-03-26T09:07:17.819Z,15.68
2023-03-26T09:10:15.123Z,15.79
2023-03-26T09:13:18.174Z,16.00
2023-03-26T09:16:15.717Z,15.97
2023-03-26T09:19:14.759Z,15.93
2023-03-26T09:22:11.378Z,15.87
2023-03-26T09:25:14.948Z,15.71
2023-03-26T09:28:21.450Z,15.65
2023-03-26T09:31:30.146Z,15.58
2023-03-26T09:34:36.668Z,15.48
2023-03-26T09:37:56.091Z,15.58
2023-03-26T09:40:44.940Z,15.63
2023-03-26T09:44:05.394Z,15.59
2023-03-26T09:46:48.480Z,15.42
2023-03-26T09:49:41.225Z,15.49
2023-03-26T09:52:28.896Z,15.49
2023-03-26T09:55:30.119Z,15.49
2023-03-26T09:58:27.488Z,15.53
2023-03-26T10:01:48.704Z,15.62
2023-03-26T10:04:49.321Z,15.69
2023-03-26T10:07:52.736Z,15.70
2023-03-26T10:10:45.309Z,15.60
2023-03-26T10:13:29.301Z,15.57
2023-03-26T10:16:13.941Z,15.65
2023-03-26T10:19:04.859Z,15.89
2023-03-26T10:22:01.677Z,16.08
2023-03-26T10:24:42.731Z,16.27
2023-03-26T10:27:42.585Z,16.38
2023-03-26T10:30:35.305Z,16.55
2023-03-26T10:33:25.241Z,16.73
2023-03-26T10:36:18.323Z,16.79
2023-03-26T10:39:36.130Z,16.76
2023-03-26T10:42:34.542Z,16.85
2023-03-26T10:45:55.582Z,16.93
2023-03-26T10:48:30.890Z,17.08
2023-03-26T10:51:41.560Z,17.14
2023-03-26T10:54:34.065Z,17.09
2023-03-26T10:57:16.625Z,17.08
2023-03-26T10:59:50.126Z,17.15
2023-03-26T11:02:32.976Z,16.96
2023-03-26T11:05:31.507Z,16.86
2023-03-26T11:08:13.935Z,17.02
2023-03-26T11:11:01.877Z,16.70
2023-03-26T11:14:24.314Z,16.67
2023-03-26T11:17:41.908Z,16.83
2023-03-26T11:20:27.865Z,16.93
2023-03-26T11:23:39.151Z,16.98
2023-03-26T11:26:18.991Z,17.01
2023-03-26T11:29:31.782Z,16.77
2023-03-26T11:32:22.784Z,16.53
2023-03-26T11:35:39.843Z,16.43
2023-03-26T11:38:22.449Z,16.22
2023-03-26T11:40:58.379Z,16.04
2023-03-26T11:43:59.969Z,15.86
2023-03-26T11:46:41.031Z,15.80
2023-03-26T11:49:23.156Z,15.66
2023-03-26T11:51:57.056Z,15.74
2023-03-26T11:54:30.533Z,15.75
2023-03-26T11:57:15.564Z,15.74
2023-03-26T11:59:57.527Z,15.67
2023-03-26T12:02:42.187Z,15.71
2023-03-26T12:05:34.033Z,15.76
2023-03-26T12:08:21.119Z,15.72
2023-03-26T12:11:16.561Z,15.69
2023-03-26T12:13:59.978Z,15.67
2023-03-26T12:16:33.435Z,15.75
2023-03-26T12:19:22.744Z,15.81
2023-03-26T12:21:56.601Z,15.80
2023-03-26T12:24:31.530Z,15.81
2023-03-26T12:27:24.459Z,15.75
2023-03-26T12:30:14.693Z,15.73
2023-03-26T12:32:49.304Z,15.72
2023-03-26T12:35:31.710Z,15.72
2023-03-26T12:38:37.953Z,15.77
2023-03-26T12:43:40.603Z,15.91
2023-03-26T12:44:53.471Z,16.06
2023-03-26T12:48:00.765Z,16.39
2023-03-26T12:50:51.767Z,16.84
2023-03-26T12:53:54.306Z,17.08
2023-03-26T12:56:36.767Z,17.18
2023-03-26T12:59:27.213Z,17.23
2023-03-26T13:02:23.572Z,17.12
2023-03-26T13:05:12.832Z,17.08
2023-03-26T13:08:14.676Z,16.60
2023-03-26T13:11:06.101Z,16.06
2023-03-26T13:14:01.170Z,14.97
2023-03-26T13:16:42.891Z,13.60
2023-03-26T13:19:41.897Z,12.32
2023-03-26T13:22:35.452Z,11.34
2023-03-26T13:25:33.962Z,10.46
2023-03-26T13:28:26.033Z,10.13
2023-03-26T13:31:14.201Z,10.06
2023-03-26T13:34:27.328Z,10.14
2023-03-26T13:37:17.065Z,10.64
2023-03-26T13:40:20.478Z,11.11
2023-03-26T13:43:11.706Z,11.45
2023-03-26T13:46:20.642Z,11.64
2023-03-26T13:49:16.120Z,11.91
2023-03-26T13:52:02.427Z,12.14
2023-03-26T13:54:38.366Z,12.40
2023-03-26T13:57:19.415Z,12.72
2023-03-26T14:00:24.295Z,13.17
2023-03-26T14:03:11.287Z,13.57
2023-03-26T14:05:52.052Z,13.83
2023-03-26T14:08:33.340Z,14.11
2023-03-26T14:11:19.639Z,14.27
2023-03-26T14:14:15.783Z,14.39
2023-03-26T14:16:58.898Z,14.52
2023-03-26T14:19:32.700Z,14.51
2023-03-26T14:22:27.494Z,14.40
2023-03-26T14:25:45.278Z,14.28
2023-03-26T14:28:39.089Z,14.06
2023-03-26T14:31:40.183Z,13.95
2023-03-26T14:35:05.169Z,13.87
2023-03-26T14:37:45.345Z,13.93
2023-03-26T14:41:09.750Z,13.90
2023-03-26T14:43:59.244Z,13.95
2023-03-26T14:47:05.133Z,13.92
2023-03-26T14:49:56.150Z,13.73
2023-03-26T14:53:01.172Z,13.40
2023-03-26T14:56:09.909Z,13.13
2023-03-26T14:59:17.737Z,13.12
2023-03-26T15:01:50.790Z,13.32
2023-03-26T15:04:58.494Z,13.53
2023-03-26T15:07:43.223Z,13.72
2023-03-26T15:10:47.776Z,13.62
2023-03-26T15:13:26.164Z,13.60
2023-03-26T15:16:28.124Z,13.57
2023-03-26T15:19:12.956Z,13.39
2023-03-26T15:21:54.703Z,13.26
2023-03-26T15:24:44.209Z,12.94
2023-03-26T15:27:49.748Z,13.00
2023-03-26T15:30:58.606Z,12.91
2023-03-26T15:33:49.184Z,12.78
2023-03-26T15:36:57.277Z,12.69
2023-03-26T15:40:22.993Z,12.63
2023-03-26T15:43:01.765Z,12.52
2023-03-26T15:45:37.253Z,12.41
2023-03-26T15:48:16.620Z,12.25
2023-03-26T15:51:24.028Z,12.21
2023-03-26T15:54:03.106Z,12.20
2023-03-26T15:56:49.463Z,12.13
2023-03-26T15:59:59.856Z,12.13
2023-03-26T16:02:56.260Z,12.06
2023-03-26T16:05:34.765Z,11.96
2023-03-26T16:08:22.425Z,11.90
2023-03-26T16:11:09.255Z,11.92
2023-03-26T16:14:06.213Z,11.88
2023-03-26T16:16:58.462Z,11.82
2023-03-26T16:19:49.797Z,11.77
2023-03-26T16:22:42.772Z,11.75
2023-03-26T16:25:32.221Z,11.69
2023-03-26T16:28:14.120Z,11.67
2023-03-26T16:31:23.005Z,11.65
2023-03-26T16:34:27.520Z,11.54
2023-03-26T16:37:09.596Z,11.55
2023-03-26T16:39:44.785Z,11.52
2023-03-26T16:42:34.859Z,11.43
2023-03-26T16:45:32.351Z,11.40
2023-03-26T16:48:48.064Z,11.34
2023-03-26T16:51:29.539Z,11.25
2023-03-26T16:54:36.825Z,11.15
2023-03-26T16:57:33.207Z,11.05
2023-03-26T17:00:41.778Z,10.99
2023-03-26T17:03:40.714Z,10.94
2023-03-26T17:06:32.633Z,10.90
2023-03-26T17:09:38.386Z,10.85
2023-03-26T17:12:21.243Z,10.81
2023-03-26T17:15:24.491Z,10.78
2023-03-26T17:18:21.450Z,10.74
2023-03-26T17:20:56.797Z,10.64
2023-03-26T17:24:00.665Z,10.61
2023-03-26T17:26:56.345Z,10.51
2023-03-26T17:30:31.662Z,10.41
2023-03-26T17:33:08.148Z,10.30
2023-03-26T17:35:49.917Z,10.21
2023-03-26T17:38:30.929Z,10.13
2023-03-26T17:41:04.888Z,10.02
2023-03-26T17:43:52.749Z,9.91
2023-03-26T17:46:43.723Z,9.77
2023-03-26T17:49:16.680Z,9.72
2023-03-26T17:52:03.853Z,9.66
2023-03-26T17:54:46.957Z,9.63
2023-03-26T17:57:30.637Z,9.59
2023-03-26T18:00:08.289Z,9.52
2023-03-26T18:02:56.418Z,9.45
2023-03-26T18:05:32.783Z,9.43
2023-03-26T18:08:26.926Z,9.45
2023-03-26T18:11:32.197Z,9.43
2023-03-26T18:14:32.312Z,9.38
2023-03-26T18:17:06.455Z,9.40
2023-03-26T18:20:07.083Z,9.37
2023-03-26T18:22:40.448Z,9.28
2023-03-26T18:25:34.425Z,9.23
2023-03-26T18:28:08.276Z,9.11
2023-03-26T18:30:50.600Z,9.06
2023-03-26T18:33:30.136Z,8.91
2023-03-26T18:36:05.012Z,8.81
2023-03-26T18:38:41.168Z,8.69
2023-03-26T18:41:46.784Z,8.47
2023-03-26T18:44:21.891Z,8.39
2023-03-26T18:46:59.165Z,8.24
2023-03-26T18:49:32.578Z,8.19
2023-03-26T18:52:06.091Z,8.04
2023-03-26T18:54:39.372Z,7.91
2023-03-26T18:57:24.466Z,7.86
2023-03-26T19:00:10.815Z,7.93
2023-03-26T19:02:44.950Z,7.84
2023-03-26T19:05:20.312Z,7.91
2023-03-26T19:07:54.432Z,7.92
2023-03-26T19:10:29.347Z,7.86
2023-03-26T19:13:04.706Z,7.84
2023-03-26T19:15:39.332Z,7.86
2023-03-26T19:18:18.670Z,7.74
2023-03-26T19:21:06.144Z,7.72
2023-03-26T19:23:45.874Z,7.62
2023-03-26T19:26:20.049Z,7.60
2023-03-26T19:28:56.988Z,7.56
2023-03-26T19:31:39.646Z,7.44
2023-03-26T19:34:16.157Z,7.44
2023-03-26T19:37:10.457Z,7.49
2023-03-26T19:39:50.097Z,7.49
2023-03-26T19:42:43.926Z,7.42
2023-03-26T19:45:26.254Z,7.43
2023-03-26T19:48:14.300Z,7.48
2023-03-26T19:51:07.151Z,7.46
2023-03-26T19:53:45.538Z,7.43
2023-03-26T19:56:21.242Z,7.35
2023-03-26T19:58:55.092Z,7.36
2023-03-26T20:01:30.360Z,7.30
2023-03-26T20:04:09.012Z,7.23
2023-03-26T20:06:44.345Z,7.18
2023-03-26T20:09:18.327Z,7.20
2023-03-26T20:11:53.251Z,7.19
2023-03-26T20:14:27.876Z,7.17
2023-03-26T20:17:01.854Z,7.15
2023-03-26T20:19:36.006Z,7.08
2023-03-26T20:22:14.270Z,7.18
2023-03-26T20:24:48.392Z,7.15
2023-03-26T20:27:22.993Z,7.12
2023-03-26T20:29:57.306Z,7.00
2023-03-26T20:32:31.854Z,7.06
2023-03-26T20:35:16.399Z,6.96
2023-03-26T20:37:50.639Z,6.95
2023-03-26T20:40:24.716Z,6.79
2023-03-26T20:42:58.359Z,6.80
2023-03-26T20:45:31.968Z,6.84
2023-03-26T20:48:05.754Z,6.77
2023-03-26T20:50:50.493Z,6.73
2023-03-26T20:53:26.710Z,6.77
2023-03-26T20:56:00.548Z,6.78
2023-03-26T20:58:34.336Z,6.78
2023-03-26T21:01:08.496Z,6.73
2023-03-26T21:03:42.945Z,6.71
2023-03-26T21:06:17.160Z,6.64
2023-03-26T21:08:50.974Z,6.66
2023-03-26T21:11:38.776Z,6.60
2023-03-26T21:14:25.412Z,6.58
2023-03-26T21:16:59.340Z,6.53
2023-03-26T21:19:33.720Z,6.46
2023-03-26T21:22:20.843Z,6.35
2023-03-26T21:25:09.740Z,6.24
2023-03-26T21:27:52.223Z,6.21
2023-03-26T21:30:26.447Z,6.19
2023-03-26T21:33:00.632Z,6.18
2023-03-26T21:35:35.371Z,6.18
2023-03-26T21:38:10.312Z,6.17
2023-03-26T21:40:52.979Z,6.12
2023-03-26T21:43:34.437Z,6.09
2023-03-26T21:46:08.629Z,6.10
2023-03-26T21:48:43.682Z,6.09
2023-03-26T21:51:19.791Z,5.96
2023-03-26T21:53:53.344Z,6.00
2023-03-26T21:56:50.245Z,5.92
2023-03-26T21:59:58.997Z,5.93
2023-03-26T22:02:42.230Z,5.94
2023-03-26T22:05:25.958Z,5.86
2023-03-26T22:08:09.122Z,5.93
2023-03-26T22:10:43.214Z,5.92
2023-03-26T22:13:17.131Z,5.86
2023-03-26T22:15:51.836Z,5.85
2023-03-26T22:18:26.480Z,5.92
2023-03-26T22:21:01.307Z,5.83
2023-03-26T22:23:36.864Z,5.78
2023-03-26T22:26:10.170Z,5.81
2023-03-26T22:28:43.854Z,5.75
2023-03-26T22:31:18.185Z,5.69
2023-03-26T22:33:51.693Z,5.59
2023-03-26T22:36:26.012Z,5.63
2023-03-26T22:38:59.768Z,5.60
2023-03-26T22:41:33.893Z,5.59
2023-03-26T22:44:19.025Z,5.55
2023-03-26T22:46:57.559Z,5.60
2023-03-26T22:49:31.912Z,5.61
2023-03-26T22:52:05.329Z,5.62
2023-03-26T22:54:39.678Z,5.65
2023-03-26T22:57:13.471Z,5.65
2023-03-26T22:59:47.032Z,5.57
2023-03-26T23:02:21.210Z,5.61
2023-03-26T23:04:54.892Z,5.57
2023-03-26T23:07:29.143Z,5.51
2023-03-26T23:10:02.628Z,5.49
2023-03-26T23:12:36.885Z,5.41
2023-03-26T23:15:11.226Z,5.34
2023-03-26T23:17:45.322Z,5.39
2023-03-26T23:20:30.621Z,5.29
2023-03-26T23:23:04.605Z,5.28
2023-03-26T23:25:38.211Z,5.34
2023-03-26T23:28:11.560Z,5.33
2023-03-26T23:30:52.809Z,5.26
2023-03-26T23:33:28.392Z,5.29
2023-03-26T23:36:07.390Z,5.36
2023-03-26T23:38:44.018Z,5.35
2023-03-26T23:41:22.054Z,5.29
2023-03-26T23:43:56.043Z,5.23
2023-03-26T23:46:36.961Z,5.25
2023-03-26T23:49:10.943Z,5.19
2023-03-26T23:51:44.146Z,5.21
2023-03-26T23:54:17.923Z,5.16
2023-03-26T23:56:52.127Z,5.21
2023-03-26T23:59:27.103Z,5.18
